Time,TemperatureF,DewpointF,PressureIn,WindDirection,WindDirectionDegrees,WindSpeedMPH,WindSpeedGustMPH,Humidity,HourlyPrecipIn,Conditions,Clouds,dailyrainin,SoftwareType,DateUTC
2013-11-02 03:11:00,51.0,45.0,29.65,NNE,23,0.0,0.0,81,0.00,,,0.00,,2013-11-02 07:11:00,
2013-11-02 03:22:00,51.0,45.0,29.65,NNE,23,0.0,0.0,80,0.00,,,0.00,,2013-11-02 07:22:00,
2013-11-02 03:42:00,51.0,45.0,29.65,NNE,23,0.0,0.0,81,0.00,,,0.00,,2013-11-02 07:42:00,
2013-11-02 03:52:00,51.0,45.0,29.65,NNE,23,0.0,0.0,81,0.00,,,0.00,,2013-11-02 07:52:00,
2013-11-02 04:02:00,51.0,45.0,29.65,NNE,23,0.0,0.0,81,0.00,,,0.00,,2013-11-02 08:02:00,
2013-11-02 04:42:00,50.0,45.0,29.65,NNE,23,0.0,0.0,82,0.00,,,0.00,,2013-11-02 08:42:00,
2013-11-02 04:52:00,50.0,45.0,29.65,NNE,23,0.0,0.0,82,0.00,,,0.00,,2013-11-02 08:52:00,
2013-11-02 05:02:00,50.0,45.0,29.65,NNE,23,0.0,0.0,82,0.00,,,0.00,,2013-11-02 09:02:00,
2013-11-02 05:22:00,51.0,46.0,29.67,ESE,113,0.0,0.0,82,0.00,,,0.00,,2013-11-02 09:22:00,
2013-11-02 05:53:00,51.0,46.0,29.67,SE,135,0.0,0.0,82,0.00,,,0.00,,2013-11-02 09:53:00,
2013-11-02 06:23:00,52.0,46.0,29.67,SE,135,0.0,0.0,80,0.00,,,0.00,,2013-11-02 10:23:00,
2013-11-02 06:52:00,51.0,45.0,29.66,ENE,68,0.0,0.0,79,0.00,,,0.00,,2013-11-02 10:52:00,
2013-11-02 07:22:00,51.0,44.0,29.66,SE,135,0.0,2.0,78,0.00,,,0.00,,2013-11-02 11:22:00,
2013-11-02 07:52:00,51.0,44.0,29.66,SE,135,0.0,0.0,77,0.00,,,0.00,,2013-11-02 11:52:00,
2013-11-02 08:22:00,52.0,45.0,29.67,SE,135,0.0,0.0,76,0.00,,,0.00,,2013-11-02 12:22:00,
2013-11-02 08:52:00,52.0,44.0,29.66,SE,135,0.0,0.0,75,0.00,,,0.00,,2013-11-02 12:52:00,
2013-11-02 09:22:00,52.0,44.0,29.68,SSE,158,0.0,0.0,75,0.00,,,0.00,,2013-11-02 13:22:00,
2013-11-02 09:52:00,50.0,44.0,29.66,SE,135,0.0,0.0,80,0.00,,,0.00,,2013-11-02 13:52:00,
2013-11-02 10:21:00,51.0,45.0,29.66,SE,135,0.0,0.0,81,0.00,,,0.00,,2013-11-02 14:21:00,
2013-11-02 10:42:00,51.0,45.0,29.66,SE,135,0.0,0.0,81,0.00,,,0.00,,2013-11-02 14:42:00,
2013-11-02 10:52:00,51.0,45.0,29.66,SE,135,0.0,0.0,81,0.00,,,0.00,,2013-11-02 14:52:00,
2013-11-02 11:02:00,51.0,45.0,29.66,SE,135,0.0,0.0,81,0.00,,,0.00,,2013-11-02 15:02:00,
2013-11-02 11:22:00,56.0,49.0,29.65,ESE,113,0.0,0.0,78,0.00,,,0.00,,2013-11-02 15:22:00,
2013-11-02 11:43:00,56.0,49.0,29.64,ESE,113,0.0,0.0,77,0.00,,,0.00,,2013-11-02 15:43:00,
2013-11-02 11:53:00,56.0,49.0,29.64,ESE,113,0.0,0.0,77,0.00,,,0.00,,2013-11-02 15:53:00,
2013-11-02 13:22:00,63.0,46.0,29.61,WSW,248,0.0,0.0,54,0.00,,,0.00,,2013-11-02 17:22:00,
2013-11-02 13:53:00,63.0,45.0,29.61,WSW,248,0.0,0.0,52,0.00,,,0.00,,2013-11-02 17:53:00,
2013-11-02 14:22:00,65.0,45.0,29.61,WSW,248,0.0,0.0,49,0.00,,,0.00,,2013-11-02 18:22:00,
2013-11-02 14:52:00,67.0,46.0,29.60,SE,135,0.0,0.0,47,0.00,,,0.00,,2013-11-02 18:52:00,
2013-11-02 15:22:00,67.0,46.0,29.60,WNW,293,0.0,2.0,46,0.00,,,0.00,,2013-11-02 19:22:00,
2013-11-02 15:52:00,65.0,44.0,29.59,NW,315,0.0,0.0,46,0.00,,,0.00,,2013-11-02 19:52:00,
2013-11-02 16:22:00,65.0,44.0,29.60,WNW,293,0.0,0.0,47,0.00,,,0.00,,2013-11-02 20:22:00,
2013-11-02 16:53:00,64.0,43.0,29.60,WNW,293,0.0,0.0,47,0.00,,,0.00,,2013-11-02 20:53:00,
2013-11-02 17:22:00,63.0,44.0,29.60,WNW,293,0.0,0.0,49,0.00,,,0.00,,2013-11-02 21:22:00,
2013-11-02 17:54:00,62.0,44.0,29.60,WNW,293,0.0,0.0,52,0.00,,,0.00,,2013-11-02 21:54:00,
2013-11-02 18:24:00,60.0,45.0,29.60,West,270,0.0,0.0,58,0.00,,,0.00,,2013-11-02 22:24:00,
2013-11-02 18:54:00,58.0,45.0,29.63,West,270,0.0,0.0,61,0.00,,,0.00,,2013-11-02 22:54:00,
2013-11-02 19:22:00,58.0,45.0,29.65,South,180,0.0,0.0,62,0.00,,,0.00,,2013-11-02 23:22:00,
2013-11-02 19:42:00,57.0,45.0,29.65,SSW,203,0.0,0.0,63,0.00,,,0.00,,2013-11-02 23:42:00,
2013-11-02 19:52:00,56.0,44.0,29.66,SSW,203,0.0,0.0,63,0.00,,,0.00,,2013-11-02 23:52:00,
2013-11-02 20:22:00,57.0,44.0,29.67,SSW,203,0.0,0.0,62,0.00,,,0.00,,2013-11-03 00:22:00,
2013-11-02 20:52:00,56.0,44.0,29.68,North,358,5.0,7.0,63,0.00,,,0.00,,2013-11-03 00:52:00,
2013-11-02 21:22:00,56.0,44.0,29.70,WSW,248,0.0,0.0,65,0.00,,,0.00,,2013-11-03 01:22:00,
2013-11-02 21:52:00,55.0,44.0,29.70,NE,45,0.0,0.0,66,0.00,,,0.00,,2013-11-03 01:52:00,
2013-11-02 22:22:00,54.0,44.0,29.71,North,0,0.0,0.0,68,0.00,,,0.00,,2013-11-03 02:22:00,
2013-11-02 22:52:00,54.0,44.0,29.71,NE,45,0.0,0.0,70,0.00,,,0.00,,2013-11-03 02:52:00,
2013-11-02 23:12:00,53.0,44.0,29.72,NE,45,0.0,0.0,71,0.00,,,0.00,,2013-11-03 03:12:00,
2013-11-02 23:22:00,53.0,44.0,29.71,NE,45,0.0,0.0,71,0.00,,,0.00,,2013-11-03 03:22:00,
2013-11-02 23:54:00,52.0,44.0,29.71,NE,45,0.0,0.0,73,0.00,,,0.00,,2013-11-03 03:54:00,